sensor_id;sensor_type;location;lat;lon;timestamp;P1;P2;P0
53658;PMS5003;41524;35.624;139.698;2023-12-22T00:00:09;3.00;3.00;
53658;PMS5003;41524;35.624;139.698;2023-12-22T00:05:09;4.00;4.00;
53658;PMS5003;41524;35.624;139.698;2023-12-22T00:10:09;5.00;5.00;
53658;PMS5003;41524;35.624;139.698;2023-12-22T00:15:09;5.00;4.00;
53658;PMS5003;41524;35.624;139.698;2023-12-22T00:20:09;3.00;3.00;
53658;PMS5003;41524;35.624;139.698;2023-12-22T00:25:09;6.00;5.00;
53658;PMS5003;41524;35.624;139.698;2023-12-22T00:30:09;7.00;4.00;
53658;PMS5003;41524;35.624;139.698;2023-12-22T00:35:09;5.00;5.00;
53658;PMS5003;41524;35.624;139.698;2023-12-22T00:40:09;4.00;4.00;
53658;PMS5003;41524;35.624;139.698;2023-12-22T00:45:09;5.00;5.00;
53658;PMS5003;41524;35.624;139.698;2023-12-22T00:50:09;6.00;6.00;
53658;PMS5003;41524;35.624;139.698;2023-12-22T00:55:09;4.00;4.00;
53658;PMS5003;41524;35.624;139.698;2023-12-22T01:00:09;5.00;5.00;
53658;PMS5003;41524;35.624;139.698;2023-12-22T01:05:09;4.00;4.00;
53658;PMS5003;41524;35.624;139.698;2023-12-22T01:10:09;5.00;5.00;
53658;PMS5003;41524;35.624;139.698;2023-12-22T01:15:09;4.00;4.00;
53658;PMS5003;41524;35.624;139.698;2023-12-22T01:20:09;7.00;6.00;
53658;PMS5003;41524;35.624;139.698;2023-12-22T01:25:08;6.00;6.00;
53658;PMS5003;41524;35.624;139.698;2023-12-22T01:30:09;9.00;7.00;
53658;PMS5003;41524;35.624;139.698;2023-12-22T01:35:09;5.00;5.00;
53658;PMS5003;41524;35.624;139.698;2023-12-22T01:40:09;8.00;6.00;
53658;PMS5003;41524;35.624;139.698;2023-12-22T01:45:10;5.00;5.00;
53658;PMS5003;41524;35.624;139.698;2023-12-22T01:50:09;5.00;5.00;
53658;PMS5003;41524;35.624;139.698;2023-12-22T01:55:09;7.00;7.00;
53658;PMS5003;41524;35.624;139.698;2023-12-22T02:00:10;9.00;9.00;
53658;PMS5003;41524;35.624;139.698;2023-12-22T02:05:10;5.00;5.00;
53658;PMS5003;41524;35.624;139.698;2023-12-22T02:10:11;4.00;4.00;
53658;PMS5003;41524;35.624;139.698;2023-12-22T02:15:09;6.00;6.00;
53658;PMS5003;41524;35.624;139.698;2023-12-22T02:20:09;5.00;4.00;
53658;PMS5003;41524;35.624;139.698;2023-12-22T02:25:09;7.00;6.00;
53658;PMS5003;41524;35.624;139.698;2023-12-22T02:30:11;3.00;3.00;
53658;PMS5003;41524;35.624;139.698;2023-12-22T02:35:09;6.00;5.00;
53658;PMS5003;41524;35.624;139.698;2023-12-22T02:40:09;4.00;3.00;
53658;PMS5003;41524;35.624;139.698;2023-12-22T02:45:13;3.00;3.00;
53658;PMS5003;41524;35.624;139.698;2023-12-22T02:50:09;3.00;3.00;
53658;PMS5003;41524;35.624;139.698;2023-12-22T02:55:09;6.00;3.00;
53658;PMS5003;41524;35.624;139.698;2023-12-22T03:00:09;6.00;6.00;
53658;PMS5003;41524;35.624;139.698;2023-12-22T03:05:09;4.00;4.00;
53658;PMS5003;41524;35.624;139.698;2023-12-22T03:10:09;7.00;7.00;
53658;PMS5003;41524;35.624;139.698;2023-12-22T03:15:09;4.00;4.00;
53658;PMS5003;41524;35.624;139.698;2023-12-22T03:20:10;6.00;4.00;
53658;PMS5003;41524;35.624;139.698;2023-12-22T03:25:09;4.00;4.00;
53658;PMS5003;41524;35.624;139.698;2023-12-22T03:30:10;6.00;4.00;
53658;PMS5003;41524;35.624;139.698;2023-12-22T03:35:09;4.00;4.00;
53658;PMS5003;41524;35.624;139.698;2023-12-22T03:40:09;5.00;4.00;
53658;PMS5003;41524;35.624;139.698;2023-12-22T03:45:10;3.00;3.00;
53658;PMS5003;41524;35.624;139.698;2023-12-22T03:50:09;2.00;2.00;
53658;PMS5003;41524;35.624;139.698;2023-12-22T03:55:09;1.00;1.00;
53658;PMS5003;41524;35.624;139.698;2023-12-22T04:00:10;4.00;4.00;
53658;PMS5003;41524;35.624;139.698;2023-12-22T04:05:11;4.00;2.00;
53658;PMS5003;41524;35.624;139.698;2023-12-22T04:10:20;4.00;2.00;
53658;PMS5003;41524;35.624;139.698;2023-12-22T04:15:09;2.00;2.00;
53658;PMS5003;41524;35.624;139.698;2023-12-22T04:20:09;3.00;1.00;
53658;PMS5003;41524;35.624;139.698;2023-12-22T04:25:09;3.00;3.00;
53658;PMS5003;41524;35.624;139.698;2023-12-22T04:30:10;1.00;1.00;
53658;PMS5003;41524;35.624;139.698;2023-12-22T04:35:09;1.00;1.00;
53658;PMS5003;41524;35.624;139.698;2023-12-22T04:40:10;2.00;2.00;
53658;PMS5003;41524;35.624;139.698;2023-12-22T04:45:10;2.00;2.00;
53658;PMS5003;41524;35.624;139.698;2023-12-22T04:50:09;1.00;1.00;
53658;PMS5003;41524;35.624;139.698;2023-12-22T04:55:09;1.00;1.00;
53658;PMS5003;41524;35.624;139.698;2023-12-22T05:00:09;3.00;3.00;
53658;PMS5003;41524;35.624;139.698;2023-12-22T05:05:09;3.00;3.00;
53658;PMS5003;41524;35.624;139.698;2023-12-22T05:10:09;1.00;1.00;
53658;PMS5003;41524;35.624;139.698;2023-12-22T05:15:10;0.00;0.00;
53658;PMS5003;41524;35.624;139.698;2023-12-22T05:20:10;2.00;2.00;
53658;PMS5003;41524;35.624;139.698;2023-12-22T05:25:09;2.00;2.00;
53658;PMS5003;41524;35.624;139.698;2023-12-22T05:30:09;1.00;1.00;
53658;PMS5003;41524;35.624;139.698;2023-12-22T05:35:08;2.00;0.00;
53658;PMS5003;41524;35.624;139.698;2023-12-22T05:40:09;1.00;1.00;
53658;PMS5003;41524;35.624;139.698;2023-12-22T05:45:10;0.00;0.00;
53658;PMS5003;41524;35.624;139.698;2023-12-22T05:50:09;0.00;0.00;
53658;PMS5003;41524;35.624;139.698;2023-12-22T05:55:08;2.00;0.00;
53658;PMS5003;41524;35.624;139.698;2023-12-22T06:00:09;1.00;1.00;
53658;PMS5003;41524;35.624;139.698;2023-12-22T06:05:09;3.00;2.00;
53658;PMS5003;41524;35.624;139.698;2023-12-22T06:10:10;1.00;1.00;
53658;PMS5003;41524;35.624;139.698;2023-12-22T06:15:09;1.00;1.00;
53658;PMS5003;41524;35.624;139.698;2023-12-22T06:20:10;1.00;1.00;
53658;PMS5003;41524;35.624;139.698;2023-12-22T06:25:10;0.00;0.00;
53658;PMS5003;41524;35.624;139.698;2023-12-22T06:30:09;2.00;2.00;
53658;PMS5003;41524;35.624;139.698;2023-12-22T06:35:08;1.00;1.00;
53658;PMS5003;41524;35.624;139.698;2023-12-22T06:40:09;1.00;1.00;
53658;PMS5003;41524;35.624;139.698;2023-12-22T06:45:09;2.00;2.00;
53658;PMS5003;41524;35.624;139.698;2023-12-22T06:50:09;2.00;1.00;
53658;PMS5003;41524;35.624;139.698;2023-12-22T06:55:08;1.00;1.00;
53658;PMS5003;41524;35.624;139.698;2023-12-22T07:00:09;2.00;2.00;
53658;PMS5003;41524;35.624;139.698;2023-12-22T07:05:41;2.00;2.00;
53658;PMS5003;41524;35.624;139.698;2023-12-22T07:10:10;1.00;1.00;
53658;PMS5003;41524;35.624;139.698;2023-12-22T07:15:09;5.00;2.00;
53658;PMS5003;41524;35.624;139.698;2023-12-22T07:20:10;1.00;1.00;
53658;PMS5003;41524;35.624;139.698;2023-12-22T07:25:09;2.00;1.00;
53658;PMS5003;41524;35.624;139.698;2023-12-22T07:30:10;1.00;0.00;
53658;PMS5003;41524;35.624;139.698;2023-12-22T07:35:10;2.00;1.00;
53658;PMS5003;41524;35.624;139.698;2023-12-22T07:40:09;1.00;1.00;
53658;PMS5003;41524;35.624;139.698;2023-12-22T07:45:09;1.00;1.00;
53658;PMS5003;41524;35.624;139.698;2023-12-22T07:50:08;2.00;0.00;
53658;PMS5003;41524;35.624;139.698;2023-12-22T07:55:09;3.00;3.00;
53658;PMS5003;41524;35.624;139.698;2023-12-22T08:00:10;2.00;2.00;
53658;PMS5003;41524;35.624;139.698;2023-12-22T08:05:09;2.00;2.00;
53658;PMS5003;41524;35.624;139.698;2023-12-22T08:10:09;2.00;1.00;
53658;PMS5003;41524;35.624;139.698;2023-12-22T08:15:09;4.00;2.00;
53658;PMS5003;41524;35.624;139.698;2023-12-22T08:20:09;3.00;3.00;
53658;PMS5003;41524;35.624;139.698;2023-12-22T08:25:08;3.00;2.00;
53658;PMS5003;41524;35.624;139.698;2023-12-22T08:30:09;3.00;3.00;
53658;PMS5003;41524;35.624;139.698;2023-12-22T08:35:09;5.00;3.00;
53658;PMS5003;41524;35.624;139.698;2023-12-22T08:40:09;4.00;4.00;
53658;PMS5003;41524;35.624;139.698;2023-12-22T08:45:08;4.00;4.00;
53658;PMS5003;41524;35.624;139.698;2023-12-22T08:50:09;1.00;1.00;
53658;PMS5003;41524;35.624;139.698;2023-12-22T08:55:09;1.00;1.00;
53658;PMS5003;41524;35.624;139.698;2023-12-22T09:00:10;3.00;3.00;
53658;PMS5003;41524;35.624;139.698;2023-12-22T09:05:09;2.00;2.00;
53658;PMS5003;41524;35.624;139.698;2023-12-22T09:10:09;4.00;4.00;
53658;PMS5003;41524;35.624;139.698;2023-12-22T09:15:09;3.00;3.00;
53658;PMS5003;41524;35.624;139.698;2023-12-22T09:20:09;2.00;2.00;
53658;PMS5003;41524;35.624;139.698;2023-12-22T09:25:09;1.00;1.00;
53658;PMS5003;41524;35.624;139.698;2023-12-22T09:30:10;2.00;2.00;
53658;PMS5003;41524;35.624;139.698;2023-12-22T09:35:09;0.00;0.00;
53658;PMS5003;41524;35.624;139.698;2023-12-22T09:40:09;1.00;1.00;
53658;PMS5003;41524;35.624;139.698;2023-12-22T09:45:11;0.00;0.00;
53658;PMS5003;41524;35.624;139.698;2023-12-22T09:50:09;2.00;2.00;
53658;PMS5003;41524;35.624;139.698;2023-12-22T09:55:08;1.00;1.00;
53658;PMS5003;41524;35.624;139.698;2023-12-22T10:00:09;1.00;1.00;
53658;PMS5003;41524;35.624;139.698;2023-12-22T10:05:09;1.00;1.00;
53658;PMS5003;41524;35.624;139.698;2023-12-22T10:10:10;3.00;1.00;
53658;PMS5003;41524;35.624;139.698;2023-12-22T10:15:08;1.00;1.00;
53658;PMS5003;41524;35.624;139.698;2023-12-22T10:20:10;1.00;1.00;
53658;PMS5003;41524;35.624;139.698;2023-12-22T10:25:08;3.00;1.00;
53658;PMS5003;41524;35.624;139.698;2023-12-22T10:30:10;2.00;2.00;
53658;PMS5003;41524;35.624;139.698;2023-12-22T10:35:09;3.00;3.00;
53658;PMS5003;41524;35.624;139.698;2023-12-22T10:40:09;4.00;3.00;
53658;PMS5003;41524;35.624;139.698;2023-12-22T10:45:09;2.00;2.00;
53658;PMS5003;41524;35.624;139.698;2023-12-22T10:50:10;2.00;2.00;
53658;PMS5003;41524;35.624;139.698;2023-12-22T10:55:10;2.00;1.00;
53658;PMS5003;41524;35.624;139.698;2023-12-22T11:00:09;1.00;1.00;
53658;PMS5003;41524;35.624;139.698;2023-12-22T11:05:10;2.00;2.00;
53658;PMS5003;41524;35.624;139.698;2023-12-22T11:10:09;4.00;3.00;
53658;PMS5003;41524;35.624;139.698;2023-12-22T11:15:09;4.00;3.00;
53658;PMS5003;41524;35.624;139.698;2023-12-22T11:20:09;3.00;3.00;
53658;PMS5003;41524;35.624;139.698;2023-12-22T11:25:09;3.00;3.00;
53658;PMS5003;41524;35.624;139.698;2023-12-22T11:30:10;4.00;4.00;
53658;PMS5003;41524;35.624;139.698;2023-12-22T11:35:09;4.00;3.00;
53658;PMS5003;41524;35.624;139.698;2023-12-22T11:40:09;3.00;3.00;
53658;PMS5003;41524;35.624;139.698;2023-12-22T11:45:10;5.00;3.00;
53658;PMS5003;41524;35.624;139.698;2023-12-22T11:50:09;3.00;2.00;
53658;PMS5003;41524;35.624;139.698;2023-12-22T11:55:09;1.00;1.00;
53658;PMS5003;41524;35.624;139.698;2023-12-22T12:00:37;4.00;2.00;
53658;PMS5003;41524;35.624;139.698;2023-12-22T12:05:09;1.00;1.00;
53658;PMS5003;41524;35.624;139.698;2023-12-22T12:10:10;1.00;1.00;
53658;PMS5003;41524;35.624;139.698;2023-12-22T12:15:10;3.00;3.00;
53658;PMS5003;41524;35.624;139.698;2023-12-22T12:20:09;2.00;2.00;
53658;PMS5003;41524;35.624;139.698;2023-12-22T12:25:09;2.00;2.00;
53658;PMS5003;41524;35.624;139.698;2023-12-22T12:30:14;1.00;1.00;
53658;PMS5003;41524;35.624;139.698;2023-12-22T12:35:20;2.00;1.00;
53658;PMS5003;41524;35.624;139.698;2023-12-22T12:40:09;1.00;1.00;
53658;PMS5003;41524;35.624;139.698;2023-12-22T12:45:11;0.00;0.00;
53658;PMS5003;41524;35.624;139.698;2023-12-22T12:50:08;2.00;1.00;
53658;PMS5003;41524;35.624;139.698;2023-12-22T12:55:08;0.00;0.00;
53658;PMS5003;41524;35.624;139.698;2023-12-22T13:00:11;1.00;0.00;
53658;PMS5003;41524;35.624;139.698;2023-12-22T13:05:17;0.00;0.00;
53658;PMS5003;41524;35.624;139.698;2023-12-22T13:10:19;2.00;1.00;
53658;PMS5003;41524;35.624;139.698;2023-12-22T13:15:09;1.00;0.00;
53658;PMS5003;41524;35.624;139.698;2023-12-22T13:20:10;0.00;0.00;
53658;PMS5003;41524;35.624;139.698;2023-12-22T13:25:09;0.00;0.00;
53658;PMS5003;41524;35.624;139.698;2023-12-22T13:30:09;1.00;1.00;
53658;PMS5003;41524;35.624;139.698;2023-12-22T13:35:09;0.00;0.00;
53658;PMS5003;41524;35.624;139.698;2023-12-22T13:40:12;1.00;1.00;
53658;PMS5003;41524;35.624;139.698;2023-12-22T13:45:10;2.00;0.00;
53658;PMS5003;41524;35.624;139.698;2023-12-22T13:50:13;0.00;0.00;
53658;PMS5003;41524;35.624;139.698;2023-12-22T13:55:10;0.00;0.00;
53658;PMS5003;41524;35.624;139.698;2023-12-22T14:00:25;0.00;0.00;
53658;PMS5003;41524;35.624;139.698;2023-12-22T14:05:10;1.00;1.00;
53658;PMS5003;41524;35.624;139.698;2023-12-22T14:10:09;0.00;0.00;
53658;PMS5003;41524;35.624;139.698;2023-12-22T14:15:09;0.00;0.00;
53658;PMS5003;41524;35.624;139.698;2023-12-22T14:20:09;0.00;0.00;
53658;PMS5003;41524;35.624;139.698;2023-12-22T14:25:09;1.00;1.00;
53658;PMS5003;41524;35.624;139.698;2023-12-22T14:30:10;0.00;0.00;
53658;PMS5003;41524;35.624;139.698;2023-12-22T14:35:09;0.00;0.00;
53658;PMS5003;41524;35.624;139.698;2023-12-22T14:40:09;1.00;1.00;
53658;PMS5003;41524;35.624;139.698;2023-12-22T14:45:09;1.00;0.00;
53658;PMS5003;41524;35.624;139.698;2023-12-22T14:50:09;0.00;0.00;
53658;PMS5003;41524;35.624;139.698;2023-12-22T14:55:09;1.00;1.00;
53658;PMS5003;41524;35.624;139.698;2023-12-22T15:00:10;0.00;0.00;
53658;PMS5003;41524;35.624;139.698;2023-12-22T15:05:09;1.00;1.00;
53658;PMS5003;41524;35.624;139.698;2023-12-22T15:10:08;2.00;1.00;
53658;PMS5003;41524;35.624;139.698;2023-12-22T15:15:09;0.00;0.00;
53658;PMS5003;41524;35.624;139.698;2023-12-22T15:20:09;1.00;1.00;
53658;PMS5003;41524;35.624;139.698;2023-12-22T15:25:09;1.00;1.00;
53658;PMS5003;41524;35.624;139.698;2023-12-22T15:30:09;0.00;0.00;
53658;PMS5003;41524;35.624;139.698;2023-12-22T15:35:08;1.00;1.00;
53658;PMS5003;41524;35.624;139.698;2023-12-22T15:40:09;0.00;0.00;
53658;PMS5003;41524;35.624;139.698;2023-12-22T15:45:09;0.00;0.00;
53658;PMS5003;41524;35.624;139.698;2023-12-22T15:50:09;2.00;1.00;
53658;PMS5003;41524;35.624;139.698;2023-12-22T15:55:09;1.00;1.00;
53658;PMS5003;41524;35.624;139.698;2023-12-22T16:00:10;0.00;0.00;
53658;PMS5003;41524;35.624;139.698;2023-12-22T16:05:09;1.00;1.00;
53658;PMS5003;41524;35.624;139.698;2023-12-22T16:10:09;1.00;1.00;
53658;PMS5003;41524;35.624;139.698;2023-12-22T16:15:10;1.00;1.00;
53658;PMS5003;41524;35.624;139.698;2023-12-22T16:20:10;0.00;0.00;
53658;PMS5003;41524;35.624;139.698;2023-12-22T16:25:09;0.00;0.00;
53658;PMS5003;41524;35.624;139.698;2023-12-22T16:30:09;0.00;0.00;
53658;PMS5003;41524;35.624;139.698;2023-12-22T16:35:09;1.00;1.00;
53658;PMS5003;41524;35.624;139.698;2023-12-22T16:40:09;0.00;0.00;
53658;PMS5003;41524;35.624;139.698;2023-12-22T16:45:09;0.00;0.00;
53658;PMS5003;41524;35.624;139.698;2023-12-22T16:50:10;1.00;1.00;
53658;PMS5003;41524;35.624;139.698;2023-12-22T16:55:09;2.00;1.00;
53658;PMS5003;41524;35.624;139.698;2023-12-22T17:00:09;0.00;0.00;
53658;PMS5003;41524;35.624;139.698;2023-12-22T17:05:09;1.00;1.00;
53658;PMS5003;41524;35.624;139.698;2023-12-22T17:10:10;1.00;1.00;
53658;PMS5003;41524;35.624;139.698;2023-12-22T17:15:09;1.00;1.00;
53658;PMS5003;41524;35.624;139.698;2023-12-22T17:20:09;1.00;1.00;
53658;PMS5003;41524;35.624;139.698;2023-12-22T17:25:09;1.00;1.00;
53658;PMS5003;41524;35.624;139.698;2023-12-22T17:30:10;3.00;1.00;
53658;PMS5003;41524;35.624;139.698;2023-12-22T17:35:09;1.00;1.00;
53658;PMS5003;41524;35.624;139.698;2023-12-22T17:40:09;1.00;1.00;
53658;PMS5003;41524;35.624;139.698;2023-12-22T17:45:09;1.00;1.00;
53658;PMS5003;41524;35.624;139.698;2023-12-22T17:50:10;1.00;1.00;
53658;PMS5003;41524;35.624;139.698;2023-12-22T17:55:09;1.00;1.00;
53658;PMS5003;41524;35.624;139.698;2023-12-22T18:00:09;2.00;2.00;
53658;PMS5003;41524;35.624;139.698;2023-12-22T18:05:10;2.00;2.00;
53658;PMS5003;41524;35.624;139.698;2023-12-22T18:10:09;0.00;0.00;
53658;PMS5003;41524;35.624;139.698;2023-12-22T18:15:09;2.00;2.00;
53658;PMS5003;41524;35.624;139.698;2023-12-22T18:20:09;1.00;1.00;
53658;PMS5003;41524;35.624;139.698;2023-12-22T18:25:09;1.00;1.00;
53658;PMS5003;41524;35.624;139.698;2023-12-22T18:30:09;2.00;2.00;
53658;PMS5003;41524;35.624;139.698;2023-12-22T18:35:08;2.00;2.00;
53658;PMS5003;41524;35.624;139.698;2023-12-22T18:40:09;1.00;1.00;
53658;PMS5003;41524;35.624;139.698;2023-12-22T18:45:09;1.00;1.00;
53658;PMS5003;41524;35.624;139.698;2023-12-22T18:50:09;2.00;2.00;
53658;PMS5003;41524;35.624;139.698;2023-12-22T18:55:09;2.00;1.00;
53658;PMS5003;41524;35.624;139.698;2023-12-22T19:00:10;1.00;1.00;
53658;PMS5003;41524;35.624;139.698;2023-12-22T19:05:09;3.00;3.00;
53658;PMS5003;41524;35.624;139.698;2023-12-22T19:10:09;2.00;1.00;
53658;PMS5003;41524;35.624;139.698;2023-12-22T19:15:09;2.00;1.00;
53658;PMS5003;41524;35.624;139.698;2023-12-22T19:20:09;3.00;2.00;
53658;PMS5003;41524;35.624;139.698;2023-12-22T19:25:09;2.00;2.00;
53658;PMS5003;41524;35.624;139.698;2023-12-22T19:30:10;2.00;2.00;
53658;PMS5003;41524;35.624;139.698;2023-12-22T19:35:08;1.00;1.00;
53658;PMS5003;41524;35.624;139.698;2023-12-22T19:40:09;1.00;1.00;
53658;PMS5003;41524;35.624;139.698;2023-12-22T19:45:09;4.00;2.00;
53658;PMS5003;41524;35.624;139.698;2023-12-22T19:50:09;2.00;2.00;
53658;PMS5003;41524;35.624;139.698;2023-12-22T19:55:09;2.00;2.00;
53658;PMS5003;41524;35.624;139.698;2023-12-22T20:00:10;2.00;2.00;
53658;PMS5003;41524;35.624;139.698;2023-12-22T20:05:09;3.00;2.00;
53658;PMS5003;41524;35.624;139.698;2023-12-22T20:10:08;3.00;3.00;
53658;PMS5003;41524;35.624;139.698;2023-12-22T20:15:09;3.00;3.00;
53658;PMS5003;41524;35.624;139.698;2023-12-22T20:20:09;2.00;2.00;
53658;PMS5003;41524;35.624;139.698;2023-12-22T20:25:09;1.00;1.00;
53658;PMS5003;41524;35.624;139.698;2023-12-22T20:30:10;3.00;1.00;
53658;PMS5003;41524;35.624;139.698;2023-12-22T20:35:08;2.00;2.00;
53658;PMS5003;41524;35.624;139.698;2023-12-22T20:40:08;3.00;2.00;
53658;PMS5003;41524;35.624;139.698;2023-12-22T20:45:09;3.00;3.00;
53658;PMS5003;41524;35.624;139.698;2023-12-22T20:50:10;2.00;2.00;
53658;PMS5003;41524;35.624;139.698;2023-12-22T20:55:09;4.00;2.00;
53658;PMS5003;41524;35.624;139.698;2023-12-22T21:00:17;3.00;2.00;
53658;PMS5003;41524;35.624;139.698;2023-12-22T21:05:09;2.00;2.00;
53658;PMS5003;41524;35.624;139.698;2023-12-22T21:10:10;2.00;2.00;
53658;PMS5003;41524;35.624;139.698;2023-12-22T21:15:09;3.00;3.00;
53658;PMS5003;41524;35.624;139.698;2023-12-22T21:20:10;4.00;2.00;
53658;PMS5003;41524;35.624;139.698;2023-12-22T21:25:09;3.00;3.00;
53658;PMS5003;41524;35.624;139.698;2023-12-22T21:30:11;2.00;2.00;
53658;PMS5003;41524;35.624;139.698;2023-12-22T21:35:09;3.00;3.00;
53658;PMS5003;41524;35.624;139.698;2023-12-22T21:40:09;6.00;5.00;
53658;PMS5003;41524;35.624;139.698;2023-12-22T21:45:10;3.00;3.00;
53658;PMS5003;41524;35.624;139.698;2023-12-22T21:50:09;3.00;3.00;
53658;PMS5003;41524;35.624;139.698;2023-12-22T21:55:08;4.00;3.00;
53658;PMS5003;41524;35.624;139.698;2023-12-22T22:00:14;3.00;3.00;
53658;PMS5003;41524;35.624;139.698;2023-12-22T22:05:09;4.00;3.00;
53658;PMS5003;41524;35.624;139.698;2023-12-22T22:10:09;4.00;4.00;
53658;PMS5003;41524;35.624;139.698;2023-12-22T22:15:09;7.00;6.00;
53658;PMS5003;41524;35.624;139.698;2023-12-22T22:20:09;6.00;6.00;
53658;PMS5003;41524;35.624;139.698;2023-12-22T22:25:09;6.00;4.00;
53658;PMS5003;41524;35.624;139.698;2023-12-22T22:30:09;5.00;4.00;
53658;PMS5003;41524;35.624;139.698;2023-12-22T22:35:08;4.00;4.00;
53658;PMS5003;41524;35.624;139.698;2023-12-22T22:40:09;5.00;4.00;
53658;PMS5003;41524;35.624;139.698;2023-12-22T22:45:11;7.00;6.00;
53658;PMS5003;41524;35.624;139.698;2023-12-22T22:50:09;8.00;8.00;
53658;PMS5003;41524;35.624;139.698;2023-12-22T22:55:09;7.00;6.00;
53658;PMS5003;41524;35.624;139.698;2023-12-22T23:00:09;3.00;3.00;
53658;PMS5003;41524;35.624;139.698;2023-12-22T23:05:10;4.00;4.00;
53658;PMS5003;41524;35.624;139.698;2023-12-22T23:10:09;4.00;4.00;
53658;PMS5003;41524;35.624;139.698;2023-12-22T23:15:09;6.00;5.00;
53658;PMS5003;41524;35.624;139.698;2023-12-22T23:20:10;2.00;2.00;
53658;PMS5003;41524;35.624;139.698;2023-12-22T23:25:09;2.00;2.00;
53658;PMS5003;41524;35.624;139.698;2023-12-22T23:30:09;6.00;5.00;
53658;PMS5003;41524;35.624;139.698;2023-12-22T23:35:09;4.00;4.00;
53658;PMS5003;41524;35.624;139.698;2023-12-22T23:40:09;5.00;5.00;
53658;PMS5003;41524;35.624;139.698;2023-12-22T23:45:09;7.00;7.00;
53658;PMS5003;41524;35.624;139.698;2023-12-22T23:50:09;7.00;7.00;
53658;PMS5003;41524;35.624;139.698;2023-12-22T23:55:10;17.00;13.00;
